sensor_id;sensor_type;location;lat;lon;timestamp;pressure;altitude;pressure_sealevel;temperature;humidity
21234;BME280;10774;42.178;26.578;2023-08-17T00:01:54;99858.69;;;21.56;100.00
21234;BME280;10774;42.178;26.578;2023-08-17T00:04:20;99852.16;;;21.17;100.00
21234;BME280;10774;42.178;26.578;2023-08-17T00:06:45;99853.06;;;20.75;100.00
21234;BME280;10774;42.178;26.578;2023-08-17T00:09:12;99857.94;;;21.13;100.00
21234;BME280;10774;42.178;26.578;2023-08-17T00:11:38;99856.59;;;21.09;100.00
21234;BME280;10774;42.178;26.578;2023-08-17T00:14:04;99858.28;;;21.19;100.00
21234;BME280;10774;42.178;26.578;2023-08-17T00:16:30;99843.59;;;21.20;100.00
21234;BME280;10774;42.178;26.578;2023-08-17T00:18:56;99849.47;;;21.49;100.00
21234;BME280;10774;42.178;26.578;2023-08-17T00:21:23;99852.19;;;21.49;100.00
21234;BME280;10774;42.178;26.578;2023-08-17T00:23:48;99851.88;;;21.36;100.00
21234;BME280;10774;42.178;26.578;2023-08-17T00:26:14;99863.38;;;21.13;100.00
21234;BME280;10774;42.178;26.578;2023-08-17T00:28:40;99856.66;;;21.42;100.00
21234;BME280;10774;42.178;26.578;2023-08-17T00:31:05;99862.44;;;21.55;100.00
21234;BME280;10774;42.178;26.578;2023-08-17T00:33:31;99856.94;;;21.14;100.00
21234;BME280;10774;42.178;26.578;2023-08-17T00:35:56;99859.03;;;21.53;100.00
21234;BME280;10774;42.178;26.578;2023-08-17T00:38:22;99865.69;;;21.83;100.00
21234;BME280;10774;42.178;26.578;2023-08-17T00:40:47;99858.13;;;22.02;100.00
21234;BME280;10774;42.178;26.578;2023-08-17T00:43:13;99868.72;;;22.13;100.00
21234;BME280;10774;42.178;26.578;2023-08-17T00:45:39;99867.81;;;22.29;100.00
21234;BME280;10774;42.178;26.578;2023-08-17T00:48:05;99861.50;;;22.36;100.00
21234;BME280;10774;42.178;26.578;2023-08-17T00:50:34;99871.53;;;22.44;100.00
21234;BME280;10774;42.178;26.578;2023-08-17T00:53:00;99863.13;;;22.54;100.00
21234;BME280;10774;42.178;26.578;2023-08-17T00:55:26;99870.53;;;22.37;100.00
21234;BME280;10774;42.178;26.578;2023-08-17T00:57:53;99863.06;;;22.14;100.00
21234;BME280;10774;42.178;26.578;2023-08-17T01:00:21;99861.19;;;22.07;100.00
21234;BME280;10774;42.178;26.578;2023-08-17T01:02:49;99863.44;;;22.11;100.00
21234;BME280;10774;42.178;26.578;2023-08-17T01:05:14;99861.50;;;22.36;100.00
21234;BME280;10774;42.178;26.578;2023-08-17T01:07:40;99861.66;;;22.35;100.00
21234;BME280;10774;42.178;26.578;2023-08-17T01:10:06;99867.75;;;22.53;100.00
21234;BME280;10774;42.178;26.578;2023-08-17T01:12:38;99857.22;;;22.34;100.00
21234;BME280;10774;42.178;26.578;2023-08-17T01:15:12;99858.25;;;22.25;100.00
21234;BME280;10774;42.178;26.578;2023-08-17T01:17:44;99864.09;;;22.22;100.00
21234;BME280;10774;42.178;26.578;2023-08-17T01:20:14;99866.06;;;22.44;100.00
21234;BME280;10774;42.178;26.578;2023-08-17T01:22:41;99859.56;;;22.45;100.00
21234;BME280;10774;42.178;26.578;2023-08-17T01:25:08;99855.66;;;22.39;100.00
21234;BME280;10774;42.178;26.578;2023-08-17T01:27:41;99853.50;;;22.02;100.00
21234;BME280;10774;42.178;26.578;2023-08-17T01:30:08;99849.75;;;22.03;100.00
21234;BME280;10774;42.178;26.578;2023-08-17T01:32:54;99849.41;;;21.98;100.00
21234;BME280;10774;42.178;26.578;2023-08-17T01:35:32;99859.31;;;22.07;100.00
21234;BME280;10774;42.178;26.578;2023-08-17T01:38:04;99843.78;;;22.00;100.00
21234;BME280;10774;42.178;26.578;2023-08-17T01:40:33;99827.97;;;21.62;100.00
21234;BME280;10774;42.178;26.578;2023-08-17T01:43:00;99839.34;;;21.90;100.00
21234;BME280;10774;42.178;26.578;2023-08-17T01:45:26;99832.34;;;21.88;100.00
21234;BME280;10774;42.178;26.578;2023-08-17T01:47:52;99826.03;;;21.96;100.00
21234;BME280;10774;42.178;26.578;2023-08-17T01:50:17;99819.19;;;22.16;100.00
21234;BME280;10774;42.178;26.578;2023-08-17T01:52:42;99813.84;;;22.23;100.00
21234;BME280;10774;42.178;26.578;2023-08-17T01:55:08;99815.38;;;22.09;100.00
21234;BME280;10774;42.178;26.578;2023-08-17T01:57:34;99817.72;;;21.48;100.00
21234;BME280;10774;42.178;26.578;2023-08-17T02:00:01;99817.16;;;21.12;100.00
21234;BME280;10774;42.178;26.578;2023-08-17T02:02:26;99801.00;;;21.43;100.00
21234;BME280;10774;42.178;26.578;2023-08-17T02:04:52;99801.66;;;21.61;100.00
21234;BME280;10774;42.178;26.578;2023-08-17T02:07:17;99809.50;;;21.56;100.00
21234;BME280;10774;42.178;26.578;2023-08-17T02:09:42;99819.06;;;21.69;100.00
21234;BME280;10774;42.178;26.578;2023-08-17T02:12:08;99821.13;;;21.58;100.00
21234;BME280;10774;42.178;26.578;2023-08-17T02:14:33;99827.13;;;21.62;100.00
21234;BME280;10774;42.178;26.578;2023-08-17T02:16:59;99837.19;;;21.78;100.00
21234;BME280;10774;42.178;26.578;2023-08-17T02:19:24;99839.22;;;21.67;100.00
21234;BME280;10774;42.178;26.578;2023-08-17T02:21:50;99838.88;;;21.71;100.00
21234;BME280;10774;42.178;26.578;2023-08-17T02:24:15;99835.97;;;21.64;100.00
21234;BME280;10774;42.178;26.578;2023-08-17T02:26:40;99830.88;;;21.45;100.00
21234;BME280;10774;42.178;26.578;2023-08-17T02:29:06;99829.16;;;21.52;100.00
21234;BME280;10774;42.178;26.578;2023-08-17T02:31:31;99828.47;;;21.58;100.00
21234;BME280;10774;42.178;26.578;2023-08-17T02:33:57;99823.00;;;21.58;100.00
21234;BME280;10774;42.178;26.578;2023-08-17T02:36:28;99836.81;;;21.56;100.00
21234;BME280;10774;42.178;26.578;2023-08-17T02:38:55;99843.31;;;21.63;100.00
21234;BME280;10774;42.178;26.578;2023-08-17T02:41:20;99834.97;;;21.73;100.00
21234;BME280;10774;42.178;26.578;2023-08-17T02:43:46;99843.59;;;21.93;100.00
21234;BME280;10774;42.178;26.578;2023-08-17T02:46:11;99835.41;;;22.01;100.00
21234;BME280;10774;42.178;26.578;2023-08-17T02:48:36;99829.94;;;21.93;100.00
21234;BME280;10774;42.178;26.578;2023-08-17T02:51:02;99831.38;;;21.73;100.00
21234;BME280;10774;42.178;26.578;2023-08-17T02:53:27;99840.94;;;21.69;100.00
21234;BME280;10774;42.178;26.578;2023-08-17T02:55:53;99857.28;;;22.01;100.00
21234;BME280;10774;42.178;26.578;2023-08-17T02:58:18;99839.31;;;22.07;100.00
21234;BME280;10774;42.178;26.578;2023-08-17T03:00:44;99837.41;;;22.24;100.00
21234;BME280;10774;42.178;26.578;2023-08-17T03:03:09;99838.16;;;21.28;100.00
21234;BME280;10774;42.178;26.578;2023-08-17T03:05:35;99845.22;;;21.47;100.00
21234;BME280;10774;42.178;26.578;2023-08-17T03:08:00;99849.41;;;21.25;100.00
21234;BME280;10774;42.178;26.578;2023-08-17T03:10:26;99848.75;;;21.14;100.00
21234;BME280;10774;42.178;26.578;2023-08-17T03:12:51;99842.59;;;21.21;100.00
21234;BME280;10774;42.178;26.578;2023-08-17T03:15:17;99855.78;;;21.42;100.00
21234;BME280;10774;42.178;26.578;2023-08-17T03:17:42;99863.31;;;21.64;100.00
21234;BME280;10774;42.178;26.578;2023-08-17T03:20:08;99851.88;;;21.69;100.00
21234;BME280;10774;42.178;26.578;2023-08-17T03:22:34;99852.56;;;21.46;100.00
21234;BME280;10774;42.178;26.578;2023-08-17T03:25:00;99863.63;;;21.61;100.00
21234;BME280;10774;42.178;26.578;2023-08-17T03:27:28;99865.84;;;21.82;100.00
21234;BME280;10774;42.178;26.578;2023-08-17T03:29:54;99865.69;;;21.83;100.00
21234;BME280;10774;42.178;26.578;2023-08-17T03:32:19;99857.34;;;21.52;100.00
21234;BME280;10774;42.178;26.578;2023-08-17T03:34:45;99876.09;;;21.47;100.00
21234;BME280;10774;42.178;26.578;2023-08-17T03:37:11;99879.50;;;21.82;100.00
21234;BME280;10774;42.178;26.578;2023-08-17T03:39:36;99875.06;;;21.89;100.00
21234;BME280;10774;42.178;26.578;2023-08-17T03:42:02;99876.78;;;21.74;100.00
21234;BME280;10774;42.178;26.578;2023-08-17T03:44:27;99880.53;;;21.40;100.00
21234;BME280;10774;42.178;26.578;2023-08-17T03:46:52;99872.88;;;21.52;100.00
21234;BME280;10774;42.178;26.578;2023-08-17T03:49:18;99864.34;;;21.63;100.00
21234;BME280;10774;42.178;26.578;2023-08-17T03:51:43;99864.66;;;21.76;100.00
21234;BME280;10774;42.178;26.578;2023-08-17T03:54:09;99867.03;;;21.71;100.00
21234;BME280;10774;42.178;26.578;2023-08-17T03:56:34;99874.06;;;21.74;100.00
21234;BME280;10774;42.178;26.578;2023-08-17T03:58:59;99880.00;;;22.02;100.00
21234;BME280;10774;42.178;26.578;2023-08-17T04:01:25;99876.44;;;21.69;100.00
21234;BME280;10774;42.178;26.578;2023-08-17T04:03:50;99881.72;;;21.86;100.00
21234;BME280;10774;42.178;26.578;2023-08-17T04:06:16;99881.19;;;21.91;100.00
21234;BME280;10774;42.178;26.578;2023-08-17T04:08:41;99877.41;;;22.08;100.00
21234;BME280;10774;42.178;26.578;2023-08-17T04:11:07;99878.44;;;22.24;100.00
21234;BME280;10774;42.178;26.578;2023-08-17T04:13:32;99871.78;;;22.26;100.00
21234;BME280;10774;42.178;26.578;2023-08-17T04:15:58;99884.94;;;22.31;100.00
21234;BME280;10774;42.178;26.578;2023-08-17T04:18:23;99886.25;;;22.35;100.00
21234;BME280;10774;42.178;26.578;2023-08-17T04:20:50;99877.06;;;22.03;100.00
21234;BME280;10774;42.178;26.578;2023-08-17T04:23:15;99879.13;;;22.01;100.00
21234;BME280;10774;42.178;26.578;2023-08-17T04:25:42;99888.03;;;21.71;100.00
21234;BME280;10774;42.178;26.578;2023-08-17T04:28:07;99897.09;;;22.20;100.00
21234;BME280;10774;42.178;26.578;2023-08-17T04:30:33;99889.50;;;22.30;100.00
21234;BME280;10774;42.178;26.578;2023-08-17T04:32:58;99895.66;;;22.40;100.00
21234;BME280;10774;42.178;26.578;2023-08-17T04:35:23;99896.66;;;22.48;100.00
21234;BME280;10774;42.178;26.578;2023-08-17T04:37:49;99893.34;;;22.68;100.00
21234;BME280;10774;42.178;26.578;2023-08-17T04:40:14;99901.56;;;22.60;100.00
21234;BME280;10774;42.178;26.578;2023-08-17T04:42:40;99896.09;;;22.60;100.00
21234;BME280;10774;42.178;26.578;2023-08-17T04:45:06;99901.28;;;22.47;100.00
21234;BME280;10774;42.178;26.578;2023-08-17T04:47:31;99893.84;;;22.16;100.00
21234;BME280;10774;42.178;26.578;2023-08-17T04:49:57;99887.84;;;21.97;100.00
21234;BME280;10774;42.178;26.578;2023-08-17T04:52:22;99898.97;;;21.87;100.00
21234;BME280;10774;42.178;26.578;2023-08-17T04:54:49;99893.88;;;21.67;100.00
21234;BME280;10774;42.178;26.578;2023-08-17T04:57:15;99893.84;;;22.00;100.00
21234;BME280;10774;42.178;26.578;2023-08-17T04:59:41;99892.81;;;21.85;100.00
21234;BME280;10774;42.178;26.578;2023-08-17T05:02:06;99899.31;;;21.76;100.00
21234;BME280;10774;42.178;26.578;2023-08-17T05:04:32;99887.34;;;21.77;100.00
21234;BME280;10774;42.178;26.578;2023-08-17T05:06:57;99892.50;;;21.80;100.00
21234;BME280;10774;42.178;26.578;2023-08-17T05:09:23;99895.22;;;22.04;100.00
21234;BME280;10774;42.178;26.578;2023-08-17T05:11:48;99897.25;;;22.18;100.00
21234;BME280;10774;42.178;26.578;2023-08-17T05:14:13;99894.19;;;22.13;100.00
21234;BME280;10774;42.178;26.578;2023-08-17T05:16:39;99890.22;;;22.08;100.00
21234;BME280;10774;42.178;26.578;2023-08-17T05:19:04;99880.31;;;22.23;100.00
21234;BME280;10774;42.178;26.578;2023-08-17T05:21:30;99882.06;;;22.16;100.00
21234;BME280;10774;42.178;26.578;2023-08-17T05:23:55;99892.19;;;22.55;100.00
21234;BME280;10774;42.178;26.578;2023-08-17T05:26:21;99886.31;;;22.66;100.00
21234;BME280;10774;42.178;26.578;2023-08-17T05:28:47;99879.03;;;22.50;100.00
21234;BME280;10774;42.178;26.578;2023-08-17T05:31:13;99880.81;;;22.74;100.00
21234;BME280;10774;42.178;26.578;2023-08-17T05:33:38;99886.50;;;23.04;100.00
21234;BME280;10774;42.178;26.578;2023-08-17T05:36:06;99873.06;;;22.94;100.00
21234;BME280;10774;42.178;26.578;2023-08-17T05:38:32;99876.94;;;23.31;100.00
21234;BME280;10774;42.178;26.578;2023-08-17T05:40:58;99887.50;;;23.57;100.00
21234;BME280;10774;42.178;26.578;2023-08-17T05:43:24;99877.59;;;23.56;100.00
21234;BME280;10774;42.178;26.578;2023-08-17T05:45:50;99883.09;;;23.79;100.00
21234;BME280;10774;42.178;26.578;2023-08-17T05:48:20;99880.56;;;23.92;100.00
21234;BME280;10774;42.178;26.578;2023-08-17T05:50:48;99890.03;;;24.04;100.00
21234;BME280;10774;42.178;26.578;2023-08-17T05:53:14;99872.09;;;24.16;100.00
21234;BME280;10774;42.178;26.578;2023-08-17T05:55:39;99882.09;;;24.09;100.00
21234;BME280;10774;42.178;26.578;2023-08-17T05:58:05;99865.09;;;24.29;100.00
21234;BME280;10774;42.178;26.578;2023-08-17T06:00:30;99861.81;;;24.48;100.00
21234;BME280;10774;42.178;26.578;2023-08-17T06:02:56;99859.53;;;24.51;100.00
21234;BME280;10774;42.178;26.578;2023-08-17T06:05:29;99856.97;;;24.80;100.00
21234;BME280;10774;42.178;26.578;2023-08-17T06:07:56;99850.69;;;24.86;100.00
21234;BME280;10774;42.178;26.578;2023-08-17T06:10:22;99849.84;;;24.85;100.00
21234;BME280;10774;42.178;26.578;2023-08-17T06:12:54;99859.13;;;25.20;100.00
21234;BME280;10774;42.178;26.578;2023-08-17T06:15:20;99846.97;;;25.51;98.08
21234;BME280;10774;42.178;26.578;2023-08-17T06:17:46;99853.78;;;25.34;99.03
21234;BME280;10774;42.178;26.578;2023-08-17T06:20:12;99847.34;;;25.69;97.05
21234;BME280;10774;42.178;26.578;2023-08-17T06:22:38;99849.78;;;26.07;89.75
21234;BME280;10774;42.178;26.578;2023-08-17T06:25:05;99853.44;;;26.42;82.75
21234;BME280;10774;42.178;26.578;2023-08-17T06:27:31;99843.41;;;26.69;80.71
21234;BME280;10774;42.178;26.578;2023-08-17T06:29:56;99846.88;;;26.98;77.56
21234;BME280;10774;42.178;26.578;2023-08-17T06:32:22;99839.69;;;27.03;74.59
21234;BME280;10774;42.178;26.578;2023-08-17T06:34:47;99843.16;;;27.12;73.07
21234;BME280;10774;42.178;26.578;2023-08-17T06:37:13;99840.41;;;27.12;71.72
21234;BME280;10774;42.178;26.578;2023-08-17T06:39:38;99854.69;;;27.49;71.21
21234;BME280;10774;42.178;26.578;2023-08-17T06:42:04;99851.69;;;27.37;70.52
21234;BME280;10774;42.178;26.578;2023-08-17T06:44:30;99846.84;;;27.59;68.63
21234;BME280;10774;42.178;26.578;2023-08-17T06:46:56;99853.03;;;28.01;68.44
21234;BME280;10774;42.178;26.578;2023-08-17T06:49:21;99845.97;;;28.18;67.01
21234;BME280;10774;42.178;26.578;2023-08-17T06:51:47;99845.16;;;28.11;64.92
21234;BME280;10774;42.178;26.578;2023-08-17T06:54:13;99850.03;;;28.02;64.61
21234;BME280;10774;42.178;26.578;2023-08-17T06:56:38;99852.56;;;28.04;64.78
21234;BME280;10774;42.178;26.578;2023-08-17T06:59:03;99847.88;;;28.24;64.31
21234;BME280;10774;42.178;26.578;2023-08-17T07:01:29;99841.22;;;28.65;63.50
21234;BME280;10774;42.178;26.578;2023-08-17T07:03:54;99836.69;;;28.77;62.93
21234;BME280;10774;42.178;26.578;2023-08-17T07:06:21;99838.44;;;28.65;61.66
21234;BME280;10774;42.178;26.578;2023-08-17T07:08:46;99843.84;;;28.91;61.47
21234;BME280;10774;42.178;26.578;2023-08-17T07:11:11;99830.66;;;29.38;60.54
21234;BME280;10774;42.178;26.578;2023-08-17T07:13:37;99830.81;;;29.43;58.40
21234;BME280;10774;42.178;26.578;2023-08-17T07:16:02;99825.44;;;29.55;56.62
21234;BME280;10774;42.178;26.578;2023-08-17T07:18:28;99828.31;;;29.67;54.03
21234;BME280;10774;42.178;26.578;2023-08-17T07:20:53;99827.00;;;29.94;53.89
21234;BME280;10774;42.178;26.578;2023-08-17T07:23:19;99836.31;;;30.25;53.12
21234;BME280;10774;42.178;26.578;2023-08-17T07:25:44;99831.56;;;30.32;52.90
21234;BME280;10774;42.178;26.578;2023-08-17T07:28:09;99840.34;;;30.66;52.53
21234;BME280;10774;42.178;26.578;2023-08-17T07:30:35;99837.25;;;30.74;51.66
21234;BME280;10774;42.178;26.578;2023-08-17T07:33:00;99836.88;;;30.89;51.51
21234;BME280;10774;42.178;26.578;2023-08-17T07:35:26;99837.72;;;30.89;50.34
21234;BME280;10774;42.178;26.578;2023-08-17T07:37:51;99835.72;;;30.78;51.40
21234;BME280;10774;42.178;26.578;2023-08-17T07:40:17;99845.38;;;30.76;50.68
21234;BME280;10774;42.178;26.578;2023-08-17T07:42:42;99841.72;;;30.93;50.49
21234;BME280;10774;42.178;26.578;2023-08-17T07:45:08;99849.13;;;30.81;50.80
21234;BME280;10774;42.178;26.578;2023-08-17T07:47:34;99831.75;;;31.04;50.63
21234;BME280;10774;42.178;26.578;2023-08-17T07:50:04;99821.41;;;30.81;50.88
21234;BME280;10774;42.178;26.578;2023-08-17T07:52:30;99823.78;;;30.96;50.94
21234;BME280;10774;42.178;26.578;2023-08-17T07:54:55;99825.72;;;30.77;50.19
21234;BME280;10774;42.178;26.578;2023-08-17T07:57:21;99814.75;;;31.01;51.04
21234;BME280;10774;42.178;26.578;2023-08-17T07:59:46;99816.81;;;31.35;50.52
21234;BME280;10774;42.178;26.578;2023-08-17T08:02:12;99822.44;;;30.98;48.93
21234;BME280;10774;42.178;26.578;2023-08-17T08:04:37;99818.75;;;30.75;50.63
21234;BME280;10774;42.178;26.578;2023-08-17T08:07:03;99811.09;;;30.52;51.41
21234;BME280;10774;42.178;26.578;2023-08-17T08:09:28;99816.00;;;30.31;51.32
21234;BME280;10774;42.178;26.578;2023-08-17T08:11:54;99806.00;;;30.67;51.94
21234;BME280;10774;42.178;26.578;2023-08-17T08:14:19;99807.94;;;30.85;49.63
21234;BME280;10774;42.178;26.578;2023-08-17T08:16:45;99814.34;;;30.85;51.45
21234;BME280;10774;42.178;26.578;2023-08-17T08:19:10;99817.22;;;31.39;49.06
21234;BME280;10774;42.178;26.578;2023-08-17T08:21:35;99813.88;;;31.00;49.03
21234;BME280;10774;42.178;26.578;2023-08-17T08:24:01;99813.25;;;30.86;50.71
21234;BME280;10774;42.178;26.578;2023-08-17T08:26:26;99810.03;;;30.71;50.91
21234;BME280;10774;42.178;26.578;2023-08-17T08:28:52;99807.72;;;30.86;50.13
21234;BME280;10774;42.178;26.578;2023-08-17T08:31:17;99821.22;;;31.24;49.77
21234;BME280;10774;42.178;26.578;2023-08-17T08:33:43;99824.84;;;31.67;48.62
21234;BME280;10774;42.178;26.578;2023-08-17T08:36:08;99821.22;;;31.66;47.47
21234;BME280;10774;42.178;26.578;2023-08-17T08:38:34;99818.16;;;31.98;47.13
21234;BME280;10774;42.178;26.578;2023-08-17T08:41:01;99816.94;;;32.06;47.44
21234;BME280;10774;42.178;26.578;2023-08-17T08:43:27;99818.50;;;32.48;46.59
21234;BME280;10774;42.178;26.578;2023-08-17T08:45:54;99812.78;;;32.67;45.62
21234;BME280;10774;42.178;26.578;2023-08-17T08:48:22;99815.19;;;32.63;45.87
21234;BME280;10774;42.178;26.578;2023-08-17T08:50:49;99812.63;;;32.85;45.49
21234;BME280;10774;42.178;26.578;2023-08-17T08:53:15;99815.28;;;32.92;45.17
21234;BME280;10774;42.178;26.578;2023-08-17T08:55:55;99813.00;;;33.17;44.24
21234;BME280;10774;42.178;26.578;2023-08-17T08:58:23;99816.13;;;33.38;43.96
21234;BME280;10774;42.178;26.578;2023-08-17T09:00:50;99814.28;;;32.98;43.90
21234;BME280;10774;42.178;26.578;2023-08-17T09:03:16;99817.53;;;32.55;44.16
21234;BME280;10774;42.178;26.578;2023-08-17T09:05:47;99810.44;;;32.35;44.44
21234;BME280;10774;42.178;26.578;2023-08-17T09:08:14;99821.78;;;32.22;44.97
21234;BME280;10774;42.178;26.578;2023-08-17T09:10:41;99814.88;;;32.24;44.63
21234;BME280;10774;42.178;26.578;2023-08-17T09:13:07;99810.16;;;32.25;44.29
21234;BME280;10774;42.178;26.578;2023-08-17T09:15:33;99810.19;;;32.01;44.64
21234;BME280;10774;42.178;26.578;2023-08-17T09:17:59;99814.28;;;31.87;44.95
21234;BME280;10774;42.178;26.578;2023-08-17T09:23:04;99805.38;;;31.85;44.86
21234;BME280;10774;42.178;26.578;2023-08-17T09:25:31;99810.88;;;32.32;44.96
21234;BME280;10774;42.178;26.578;2023-08-17T09:27:57;99815.13;;;32.98;43.57
21234;BME280;10774;42.178;26.578;2023-08-17T09:30:22;99819.38;;;32.89;42.86
21234;BME280;10774;42.178;26.578;2023-08-17T09:32:48;99808.91;;;33.08;42.13
21234;BME280;10774;42.178;26.578;2023-08-17T09:35:14;99815.16;;;33.44;41.39
21234;BME280;10774;42.178;26.578;2023-08-17T09:37:40;99804.97;;;33.49;42.21
21234;BME280;10774;42.178;26.578;2023-08-17T09:40:06;99804.97;;;33.49;41.55
21234;BME280;10774;42.178;26.578;2023-08-17T09:42:34;99802.09;;;33.78;41.17
21234;BME280;10774;42.178;26.578;2023-08-17T09:45:00;99801.44;;;33.71;40.66
21234;BME280;10774;42.178;26.578;2023-08-17T09:47:26;99816.94;;;33.67;39.81
21234;BME280;10774;42.178;26.578;2023-08-17T09:49:53;99807.00;;;33.54;39.91
21234;BME280;10774;42.178;26.578;2023-08-17T09:52:22;99806.28;;;33.47;40.00
21234;BME280;10774;42.178;26.578;2023-08-17T09:54:49;99813.00;;;33.17;39.61
21234;BME280;10774;42.178;26.578;2023-08-17T09:57:15;99804.66;;;33.34;39.86
21234;BME280;10774;42.178;26.578;2023-08-17T09:59:41;99823.41;;;33.10;40.14
21234;BME280;10774;42.178;26.578;2023-08-17T10:02:33;99809.78;;;33.25;40.14
21234;BME280;10774;42.178;26.578;2023-08-17T10:04:59;99815.69;;;33.29;39.48
21234;BME280;10774;42.178;26.578;2023-08-17T10:07:30;99818.44;;;33.58;39.58
21234;BME280;10774;42.178;26.578;2023-08-17T10:10:05;99804.41;;;33.36;39.52
21234;BME280;10774;42.178;26.578;2023-08-17T10:12:44;99813.06;;;32.94;40.32
21234;BME280;10774;42.178;26.578;2023-08-17T10:15:13;99813.31;;;32.92;40.99
21234;BME280;10774;42.178;26.578;2023-08-17T10:20:18;99796.75;;;32.97;40.31
21234;BME280;10774;42.178;26.578;2023-08-17T10:22:52;99799.16;;;33.22;40.54
21234;BME280;10774;42.178;26.578;2023-08-17T10:25:19;99798.38;;;33.55;40.69
21234;BME280;10774;42.178;26.578;2023-08-17T10:27:45;99797.78;;;33.53;40.16
21234;BME280;10774;42.178;26.578;2023-08-17T10:30:12;99793.31;;;33.69;39.63
21234;BME280;10774;42.178;26.578;2023-08-17T10:32:38;99788.91;;;33.90;38.98
21234;BME280;10774;42.178;26.578;2023-08-17T10:35:06;99794.84;;;33.77;38.75
21234;BME280;10774;42.178;26.578;2023-08-17T10:37:32;99803.47;;;33.75;38.78
21234;BME280;10774;42.178;26.578;2023-08-17T10:39:58;99793.66;;;33.73;39.17
21234;BME280;10774;42.178;26.578;2023-08-17T10:42:30;99788.16;;;33.78;38.02
21234;BME280;10774;42.178;26.578;2023-08-17T10:44:57;99791.97;;;34.05;38.43
21234;BME280;10774;42.178;26.578;2023-08-17T10:49:56;99783.53;;;33.83;38.35
21234;BME280;10774;42.178;26.578;2023-08-17T10:52:26;99785.16;;;33.96;38.22
21234;BME280;10774;42.178;26.578;2023-08-17T10:54:53;99780.81;;;34.05;37.91
21234;BME280;10774;42.178;26.578;2023-08-17T10:57:35;99795.31;;;33.40;39.44
21234;BME280;10774;42.178;26.578;2023-08-17T11:00:18;99785.84;;;33.24;39.71
21234;BME280;10774;42.178;26.578;2023-08-17T11:02:59;99779.16;;;33.71;40.46
21234;BME280;10774;42.178;26.578;2023-08-17T11:05:45;99777.38;;;33.81;39.07
21234;BME280;10774;42.178;26.578;2023-08-17T11:08:53;99783.34;;;33.90;39.08
21234;BME280;10774;42.178;26.578;2023-08-17T11:11:21;99778.59;;;34.24;38.54
21234;BME280;10774;42.178;26.578;2023-08-17T11:13:47;99790.50;;;34.20;37.93
21234;BME280;10774;42.178;26.578;2023-08-17T11:16:17;99776.38;;;34.26;39.54
21234;BME280;10774;42.178;26.578;2023-08-17T11:18:45;99779.25;;;33.76;38.21
21234;BME280;10774;42.178;26.578;2023-08-17T11:21:11;99777.66;;;33.97;38.57
21234;BME280;10774;42.178;26.578;2023-08-17T11:23:37;99773.34;;;34.28;38.69
21234;BME280;10774;42.178;26.578;2023-08-17T11:26:04;99775.47;;;34.59;36.86
21234;BME280;10774;42.178;26.578;2023-08-17T11:28:30;99773.75;;;34.58;37.88
21234;BME280;10774;42.178;26.578;2023-08-17T11:31:05;99771.59;;;34.88;36.74
21234;BME280;10774;42.178;26.578;2023-08-17T11:33:32;99783.09;;;34.91;36.76
21234;BME280;10774;42.178;26.578;2023-08-17T11:35:59;99768.47;;;34.84;35.88
21234;BME280;10774;42.178;26.578;2023-08-17T11:38:26;99771.81;;;34.81;37.25
21234;BME280;10774;42.178;26.578;2023-08-17T11:40:55;99779.69;;;34.89;37.44
21234;BME280;10774;42.178;26.578;2023-08-17T11:43:22;99774.53;;;35.25;36.93
21234;BME280;10774;42.178;26.578;2023-08-17T11:45:48;99773.97;;;35.23;35.50
21234;BME280;10774;42.178;26.578;2023-08-17T11:48:14;99767.38;;;35.07;35.59
21234;BME280;10774;42.178;26.578;2023-08-17T11:50:42;99766.22;;;34.81;36.15
21234;BME280;10774;42.178;26.578;2023-08-17T11:53:08;99768.69;;;34.99;36.32
21234;BME280;10774;42.178;26.578;2023-08-17T11:55:33;99772.38;;;35.37;36.85
21234;BME280;10774;42.178;26.578;2023-08-17T11:58:01;99772.00;;;35.50;35.54
21234;BME280;10774;42.178;26.578;2023-08-17T12:00:27;99769.09;;;35.40;35.21
21234;BME280;10774;42.178;26.578;2023-08-17T12:02:53;99765.00;;;35.21;35.82
21234;BME280;10774;42.178;26.578;2023-08-17T12:05:23;99768.38;;;35.23;36.03
21234;BME280;10774;42.178;26.578;2023-08-17T12:07:50;99755.63;;;35.05;36.30
21234;BME280;10774;42.178;26.578;2023-08-17T12:10:18;99761.97;;;35.27;35.63
21234;BME280;10774;42.178;26.578;2023-08-17T12:12:46;99766.66;;;35.22;34.96
21234;BME280;10774;42.178;26.578;2023-08-17T12:15:13;99762.84;;;35.33;35.46
21234;BME280;10774;42.178;26.578;2023-08-17T12:17:46;99758.63;;;35.57;35.68
21234;BME280;10774;42.178;26.578;2023-08-17T12:20:19;99756.88;;;35.46;34.42
21234;BME280;10774;42.178;26.578;2023-08-17T12:22:48;99765.84;;;35.53;35.04
21234;BME280;10774;42.178;26.578;2023-08-17T12:25:14;99768.03;;;35.46;34.99
21234;BME280;10774;42.178;26.578;2023-08-17T12:27:40;99756.66;;;35.53;33.98
21234;BME280;10774;42.178;26.578;2023-08-17T12:30:12;99750.53;;;35.56;33.65
21234;BME280;10774;42.178;26.578;2023-08-17T12:32:38;99755.44;;;35.76;35.33
21234;BME280;10774;42.178;26.578;2023-08-17T12:35:04;99746.41;;;35.63;35.15
21234;BME280;10774;42.178;26.578;2023-08-17T12:37:35;99766.56;;;36.08;35.11
21234;BME280;10774;42.178;26.578;2023-08-17T12:40:04;99753.72;;;35.75;34.16
21234;BME280;10774;42.178;26.578;2023-08-17T12:42:30;99757.97;;;35.77;34.79
21234;BME280;10774;42.178;26.578;2023-08-17T12:44:55;99748.84;;;35.92;33.73
21234;BME280;10774;42.178;26.578;2023-08-17T12:47:21;99756.06;;;35.88;34.30
21234;BME280;10774;42.178;26.578;2023-08-17T12:49:46;99756.16;;;35.93;33.81
21234;BME280;10774;42.178;26.578;2023-08-17T12:52:12;99748.22;;;35.85;33.84